createdAt,value
2018-08-22T00:00:29.977Z,60325.74
2018-08-22T00:02:58.171Z,60305.41
2018-08-22T00:05:26.346Z,60328.79
2018-08-22T00:07:54.543Z,60334.88
2018-08-22T00:10:22.721Z,60309.48
2018-08-22T00:12:50.899Z,60317.61
2018-08-22T00:15:19.129Z,60340.98
2018-08-22T00:17:47.266Z,60319.64
2018-08-22T00:20:15.476Z,60328.79
2018-08-22T00:22:43.643Z,60332.85
2018-08-22T00:25:11.823Z,60330.82
2018-08-22T00:27:40.002Z,60334.88
2018-08-22T00:30:08.198Z,60325.74
2018-08-22T00:32:36.371Z,60323.71
2018-08-22T00:35:04.598Z,60338.95
2018-08-22T00:37:32.766Z,60328.79
2018-08-22T00:40:00.947Z,60328.79
2018-08-22T00:42:29.114Z,60317.61
2018-08-22T00:44:57.306Z,60336.91
2018-08-22T00:47:25.466Z,60322.69
2018-08-22T00:49:53.650Z,60347.08
2018-08-22T00:52:21.835Z,60344.03
2018-08-22T00:54:50.045Z,60345.04
2018-08-22T00:57:18.218Z,60324.72
2018-08-22T00:59:46.389Z,60346.06
2018-08-22T01:02:14.572Z,60321.67
2018-08-22T01:04:42.738Z,60344.03
2018-08-22T01:07:10.910Z,60311.51
2018-08-22T01:09:39.076Z,60316.59
2018-08-22T01:12:07.263Z,60333.87
2018-08-22T01:14:35.495Z,60327.77
2018-08-22T01:17:03.670Z,60315.57
2018-08-22T01:19:31.863Z,60320.66
2018-08-22T01:22:00.055Z,60322.69
2018-08-22T01:24:28.238Z,60340.98
2018-08-22T01:26:56.437Z,60326.75
2018-08-22T01:29:24.636Z,60350.12
2018-08-22T01:31:52.809Z,60325.74
2018-08-22T01:34:20.990Z,60320.66
2018-08-22T01:36:49.165Z,60347.08
2018-08-22T01:39:17.351Z,60337.93
2018-08-22T01:41:45.529Z,60316.59
2018-08-22T01:44:13.703Z,60324.72
2018-08-22T01:46:41.906Z,60329.80
2018-08-22T01:49:10.087Z,60326.75
2018-08-22T01:51:38.262Z,60337.93
2018-08-22T01:54:06.435Z,60344.03
2018-08-22T01:56:34.602Z,60326.75
2018-08-22T01:59:02.781Z,60333.87
2018-08-22T02:01:30.958Z,60352.16
2018-08-22T02:03:59.136Z,60352.16
2018-08-22T02:06:27.290Z,60363.34
2018-08-22T02:08:55.476Z,60358.25
2018-08-22T02:11:23.659Z,60344.03
2018-08-22T02:13:51.847Z,60351.14
2018-08-22T02:16:20.026Z,60352.16
2018-08-22T02:18:48.202Z,60340.98
2018-08-22T02:21:16.382Z,60350.12
2018-08-22T02:23:44.562Z,60350.12
2018-08-22T02:26:12.742Z,60329.80
2018-08-22T02:28:40.920Z,60334.88
2018-08-22T02:31:09.097Z,60342.00
2018-08-22T02:33:37.271Z,60330.82
2018-08-22T02:36:05.461Z,60325.74
2018-08-22T02:38:33.614Z,60340.98
2018-08-22T02:41:01.790Z,60355.21
2018-08-22T02:43:29.966Z,60368.42
2018-08-22T02:45:58.159Z,60340.98
2018-08-22T02:48:26.317Z,60348.09
2018-08-22T02:50:54.479Z,60350.12
2018-08-22T02:53:22.650Z,60357.24
2018-08-22T02:55:50.842Z,60339.96
2018-08-22T02:58:19.031Z,60339.96
2018-08-22T03:00:47.218Z,60340.98
2018-08-22T03:03:15.378Z,60348.09
2018-08-22T03:05:43.559Z,60336.91
2018-08-22T03:08:11.729Z,60358.25
2018-08-22T03:10:39.917Z,60365.37
2018-08-22T03:13:08.091Z,60357.24
2018-08-22T03:15:36.274Z,60358.25
2018-08-22T03:18:04.441Z,60354.19
2018-08-22T03:20:32.627Z,60353.18
2018-08-22T03:23:00.822Z,60373.50
2018-08-22T03:25:29.013Z,60344.03
2018-08-22T03:27:57.283Z,60360.29
2018-08-22T03:30:25.451Z,60343.01
2018-08-22T03:32:53.627Z,60339.96
2018-08-22T03:35:21.827Z,60344.03
2018-08-22T03:37:50.002Z,60363.34
2018-08-22T03:40:18.195Z,60353.18
2018-08-22T03:42:46.359Z,60346.06
2018-08-22T03:45:14.538Z,60357.24
2018-08-22T03:47:42.719Z,60379.59
2018-08-22T03:50:10.899Z,60360.29
2018-08-22T03:52:39.132Z,60359.27
2018-08-22T03:55:07.304Z,60381.63
2018-08-22T03:57:35.478Z,60354.19
2018-08-22T04:00:03.677Z,60355.21
2018-08-22T04:02:31.863Z,60377.56
2018-08-22T04:05:00.039Z,60357.24
2018-08-22T04:07:28.211Z,60380.61
2018-08-22T04:09:56.402Z,60365.37
2018-08-22T04:12:24.618Z,60376.55
2018-08-22T04:14:52.758Z,60357.24
2018-08-22T04:17:20.920Z,60335.90
2018-08-22T04:19:49.090Z,60352.16
2018-08-22T04:22:17.402Z,60370.45
2018-08-22T04:24:45.630Z,60355.21
2018-08-22T04:27:13.810Z,60375.53
2018-08-22T04:29:41.971Z,60352.16
2018-08-22T04:32:10.134Z,60355.21
2018-08-22T04:34:38.327Z,60363.34
2018-08-22T04:37:06.487Z,60362.32
2018-08-22T04:39:34.667Z,60367.40
2018-08-22T04:42:02.843Z,60360.29
2018-08-22T04:44:31.017Z,60375.53
2018-08-22T04:46:59.182Z,60368.42
2018-08-22T04:49:27.360Z,60352.16
2018-08-22T04:51:55.531Z,60355.21
2018-08-22T04:54:23.735Z,60365.37
2018-08-22T04:56:51.894Z,60375.53
2018-08-22T04:59:20.062Z,60355.21
2018-08-22T05:01:48.247Z,60364.35
2018-08-22T05:04:16.406Z,60365.37
2018-08-22T05:06:44.590Z,60359.27
2018-08-22T05:09:12.744Z,60344.03
2018-08-22T05:11:40.915Z,60366.39
2018-08-22T05:14:09.094Z,60360.29
2018-08-22T05:16:37.283Z,60378.58
2018-08-22T05:19:05.450Z,60381.63
2018-08-22T05:21:33.641Z,60360.29
2018-08-22T05:24:01.810Z,60358.25
2018-08-22T05:26:29.991Z,60387.72
2018-08-22T05:28:58.159Z,60361.30
2018-08-22T05:31:26.330Z,60359.27
2018-08-22T05:33:54.491Z,60370.45
2018-08-22T05:36:22.670Z,60365.37
2018-08-22T05:38:50.850Z,60365.37
2018-08-22T05:41:19.134Z,60352.16
2018-08-22T05:43:47.306Z,60356.22
2018-08-22T05:46:15.482Z,60339.96
2018-08-22T05:48:43.670Z,60358.25
2018-08-22T05:51:11.914Z,60363.34
2018-08-22T05:53:40.080Z,60355.21
2018-08-22T05:56:08.304Z,60372.48
2018-08-22T05:58:36.479Z,60370.45
2018-08-22T06:01:04.691Z,60358.25
2018-08-22T06:03:32.860Z,60370.45
2018-08-22T06:06:01.111Z,60353.18
2018-08-22T06:08:29.279Z,60348.09
2018-08-22T06:10:57.453Z,60345.04
2018-08-22T06:13:25.626Z,60359.27
2018-08-22T06:15:53.790Z,60336.91
2018-08-22T06:18:21.990Z,60324.72
2018-08-22T06:20:50.151Z,60356.22
2018-08-22T06:23:18.430Z,60328.79
2018-08-22T06:25:46.606Z,60342.00
2018-08-22T06:28:14.789Z,60340.98
2018-08-22T06:30:43.239Z,60356.22
2018-08-22T06:33:11.426Z,60363.34
2018-08-22T06:35:39.592Z,60331.84
2018-08-22T06:38:13.306Z,60336.91
2018-08-22T06:40:41.485Z,60335.90
2018-08-22T06:43:09.667Z,60324.72
2018-08-22T06:45:37.843Z,60333.87
2018-08-22T06:48:06.049Z,60328.79
2018-08-22T06:50:34.213Z,60350.12
2018-08-22T06:53:02.381Z,60354.19
2018-08-22T06:55:30.581Z,60334.88
2018-08-22T06:57:58.787Z,60343.01
2018-08-22T07:00:26.985Z,60320.66
2018-08-22T07:02:55.258Z,60316.59
2018-08-22T07:05:23.454Z,60317.61
2018-08-22T07:07:51.682Z,60306.43
2018-08-22T07:10:19.863Z,60324.72
2018-08-22T07:12:48.025Z,60319.64
2018-08-22T07:15:16.219Z,60319.64
2018-08-22T07:17:44.413Z,60319.64
2018-08-22T07:20:12.596Z,60316.59
2018-08-22T07:22:40.762Z,60300.34
2018-08-22T07:25:08.958Z,60299.32
2018-08-22T07:27:37.156Z,60312.53
2018-08-22T07:30:05.766Z,60311.51
2018-08-22T07:32:33.914Z,60301.35
2018-08-22T07:35:02.102Z,60299.32
2018-08-22T07:37:30.271Z,60284.07
2018-08-22T07:39:58.463Z,60296.27
2018-08-22T07:42:26.652Z,60316.59
2018-08-22T07:44:54.814Z,60313.54
2018-08-22T07:47:22.998Z,60281.03
2018-08-22T07:49:51.190Z,60298.30
2018-08-22T07:52:19.407Z,60289.16
2018-08-22T07:54:47.914Z,60274.93
2018-08-22T07:57:17.439Z,60308.46
2018-08-22T07:59:45.686Z,60271.88
2018-08-22T08:02:13.866Z,60293.22
2018-08-22T08:04:42.046Z,60287.12
2018-08-22T08:07:10.255Z,60297.29
2018-08-22T08:09:38.428Z,60285.09
2018-08-22T08:12:06.602Z,60283.06
2018-08-22T08:14:35.161Z,60281.03
2018-08-22T08:17:14.341Z,60275.95
2018-08-22T08:19:42.498Z,60278.99
2018-08-22T08:22:10.679Z,60269.85
2018-08-22T08:24:38.874Z,60281.03
2018-08-22T08:27:07.077Z,60286.11
2018-08-22T08:29:35.248Z,60281.03
2018-08-22T08:32:03.462Z,60267.82
2018-08-22T08:34:31.650Z,60270.87
2018-08-22T08:36:59.842Z,60271.88
2018-08-22T08:39:28.051Z,60271.88
2018-08-22T08:41:56.245Z,60267.82
2018-08-22T08:44:24.435Z,60268.83
2018-08-22T08:46:52.853Z,60246.48
2018-08-22T08:49:21.073Z,60271.88
2018-08-22T08:51:57.732Z,60254.61
2018-08-22T08:54:25.967Z,60244.45
2018-08-22T08:56:54.176Z,60229.20
2018-08-22T08:59:22.418Z,60247.49
2018-08-22T09:01:50.603Z,60248.51
2018-08-22T09:04:18.815Z,60242.41
2018-08-22T09:06:47.291Z,60240.38
2018-08-22T09:09:15.475Z,60241.40
2018-08-22T09:11:48.702Z,60235.30
2018-08-22T09:14:16.888Z,60250.54
2018-08-22T09:16:45.058Z,60240.38
2018-08-22T09:19:13.241Z,60241.40
2018-08-22T09:21:41.410Z,60235.30
2018-08-22T09:24:09.615Z,60231.24
2018-08-22T09:26:37.779Z,60221.07
2018-08-22T09:29:05.962Z,60225.14
2018-08-22T09:31:34.128Z,60200.75
2018-08-22T09:34:02.301Z,60219.04
2018-08-22T09:36:30.470Z,60210.91
2018-08-22T09:38:58.645Z,60213.96
2018-08-22T09:41:27.059Z,60226.16
2018-08-22T09:43:55.228Z,60188.56
2018-08-22T09:46:23.420Z,60215.99
2018-08-22T09:48:51.790Z,60188.56
2018-08-22T09:51:19.958Z,60177.38
2018-08-22T09:53:48.141Z,60184.49
2018-08-22T09:56:16.322Z,60178.40
2018-08-22T09:58:44.494Z,60159.09
2018-08-22T10:01:17.994Z,60148.93
2018-08-22T10:03:53.326Z,60160.11
2018-08-22T10:06:48.418Z,60148.93
2018-08-22T10:09:22.042Z,60157.06
2018-08-22T10:11:50.218Z,60125.56
2018-08-22T10:14:18.431Z,60139.79
2018-08-22T10:16:46.603Z,60137.75
2018-08-22T10:19:14.778Z,60134.70
2018-08-22T10:21:42.951Z,60133.69
2018-08-22T10:24:11.136Z,60138.77
2018-08-22T10:26:39.371Z,60118.45
2018-08-22T10:29:07.515Z,60115.40
2018-08-22T10:31:35.689Z,60120.48
2018-08-22T10:34:03.910Z,60119.46
2018-08-22T10:36:32.092Z,60110.32
2018-08-22T10:39:00.268Z,60101.17
2018-08-22T10:41:28.450Z,60103.20
2018-08-22T10:43:56.630Z,60122.51
2018-08-22T10:46:24.812Z,60088.98
2018-08-22T10:48:52.986Z,60096.09
2018-08-22T10:51:21.180Z,60090.00
2018-08-22T10:53:49.375Z,60091.01
2018-08-22T10:56:17.546Z,60082.88
2018-08-22T10:58:45.720Z,60082.88
2018-08-22T11:01:13.913Z,60105.24
2018-08-22T11:03:42.077Z,60083.90
2018-08-22T11:06:10.259Z,60076.79
2018-08-22T11:08:38.432Z,60068.66
2018-08-22T11:11:06.608Z,60092.03
2018-08-22T11:13:34.771Z,60088.98
2018-08-22T11:16:03.035Z,60085.93
2018-08-22T11:18:31.191Z,60068.66
2018-08-22T11:21:10.720Z,60068.66
2018-08-22T11:23:50.078Z,60063.57
2018-08-22T11:26:29.403Z,60061.54
2018-08-22T11:29:09.006Z,60061.54
2018-08-22T11:31:48.367Z,60043.25
2018-08-22T11:34:27.726Z,60051.38
2018-08-22T11:37:02.963Z,60061.54
2018-08-22T11:39:31.210Z,60058.50
2018-08-22T11:41:59.474Z,60065.61
2018-08-22T11:44:27.696Z,60060.53
2018-08-22T11:46:56.750Z,60069.67
2018-08-22T11:49:24.931Z,60046.30
2018-08-22T11:51:53.166Z,60058.50
2018-08-22T11:54:21.411Z,60062.56
2018-08-22T11:56:49.603Z,60074.75
2018-08-22T11:59:18.192Z,60077.80
2018-08-22T12:01:46.394Z,60077.80
2018-08-22T12:04:14.583Z,60070.69
2018-08-22T12:06:42.798Z,60078.82
2018-08-22T12:09:12.480Z,60079.84
2018-08-22T12:11:41.115Z,60074.75
2018-08-22T12:14:09.809Z,60077.80
2018-08-22T12:16:38.283Z,60079.84
2018-08-22T12:19:06.870Z,60088.98
2018-08-22T12:21:35.067Z,60076.79
2018-08-22T12:24:03.623Z,60084.91
2018-08-22T12:26:31.805Z,60067.64
2018-08-22T12:29:00.019Z,60084.91
2018-08-22T12:31:28.548Z,60078.82
2018-08-22T12:33:56.738Z,60098.12
2018-08-22T12:36:24.915Z,60092.03
2018-08-22T12:38:53.084Z,60094.06
2018-08-22T12:41:21.258Z,60085.93
2018-08-22T12:43:49.438Z,60104.22
2018-08-22T12:46:17.660Z,60092.03
2018-08-22T12:48:45.831Z,60081.87
2018-08-22T12:51:14.079Z,60097.11
2018-08-22T12:53:42.259Z,60084.91
2018-08-22T12:56:10.435Z,60090.00
2018-08-22T12:58:38.649Z,60094.06
2018-08-22T13:01:07.163Z,60080.85
2018-08-22T13:03:35.351Z,60092.03
2018-08-22T13:06:03.617Z,60094.06
2018-08-22T13:08:31.793Z,60077.80
2018-08-22T13:10:59.992Z,60107.27
2018-08-22T13:13:28.151Z,60082.88
2018-08-22T13:15:56.378Z,60092.03
2018-08-22T13:18:24.558Z,60084.91
2018-08-22T13:20:52.730Z,60097.11
2018-08-22T13:23:21.027Z,60099.14
2018-08-22T13:25:49.218Z,60100.16
2018-08-22T13:28:17.391Z,60086.95
2018-08-22T13:30:45.559Z,60107.27
2018-08-22T13:33:13.734Z,60113.37
2018-08-22T13:35:41.919Z,60100.16
2018-08-22T13:38:10.102Z,60092.03
2018-08-22T13:40:38.291Z,60090.00
2018-08-22T13:43:06.514Z,60092.03
2018-08-22T13:45:34.690Z,60094.06
2018-08-22T13:48:02.876Z,60116.41
2018-08-22T13:50:31.042Z,60104.22
2018-08-22T13:52:59.249Z,60113.37
2018-08-22T13:55:27.509Z,60121.50
2018-08-22T13:57:55.687Z,60125.56
2018-08-22T14:00:23.859Z,60104.22
2018-08-22T14:02:52.083Z,60097.11
2018-08-22T14:05:20.223Z,60100.16
2018-08-22T14:07:48.396Z,60110.32
2018-08-22T14:10:16.594Z,60115.40
2018-08-22T14:12:44.771Z,60114.38
2018-08-22T14:15:13.370Z,60114.38
2018-08-22T14:17:41.597Z,60099.14
2018-08-22T14:20:09.783Z,60113.37
2018-08-22T14:22:37.966Z,60111.33
2018-08-22T14:25:06.143Z,60109.30
2018-08-22T14:27:34.333Z,60101.17
2018-08-22T14:30:02.514Z,60124.54
2018-08-22T14:32:30.694Z,60120.48
2018-08-22T14:34:58.871Z,60137.75
2018-08-22T14:37:27.054Z,60127.59
2018-08-22T14:39:55.239Z,60111.33
2018-08-22T14:42:35.878Z,60126.57
2018-08-22T14:45:04.064Z,60134.70
2018-08-22T14:47:32.260Z,60126.57
2018-08-22T14:50:00.422Z,60117.43
2018-08-22T14:52:28.604Z,60118.45
2018-08-22T14:54:57.099Z,60121.50
2018-08-22T14:57:25.259Z,60134.70
2018-08-22T14:59:53.431Z,60129.63
2018-08-22T15:02:21.689Z,60134.70
2018-08-22T15:04:49.766Z,60137.75
2018-08-22T15:07:17.948Z,60128.61
2018-08-22T15:09:46.110Z,60125.56
2018-08-22T15:12:14.274Z,60143.85
2018-08-22T15:14:42.451Z,60145.88
2018-08-22T15:17:10.622Z,60126.57
2018-08-22T15:19:38.825Z,60138.77
2018-08-22T15:22:07.005Z,60150.96
2018-08-22T15:24:35.187Z,60139.79
2018-08-22T15:27:03.399Z,60141.82
2018-08-22T15:29:31.595Z,60140.80
2018-08-22T15:31:59.771Z,60148.93
2018-08-22T15:34:39.326Z,60138.77
2018-08-22T15:37:07.502Z,60144.87
2018-08-22T15:39:35.681Z,60147.91
2018-08-22T15:42:03.946Z,60140.80
2018-08-22T15:44:32.046Z,60132.67
2018-08-22T15:47:00.223Z,60139.79
2018-08-22T15:49:28.398Z,60145.88
2018-08-22T15:51:56.619Z,60154.01
2018-08-22T15:54:24.808Z,60131.66
2018-08-22T15:56:53.023Z,60140.80
2018-08-22T15:59:21.165Z,60138.77
2018-08-22T16:01:49.338Z,60149.95
2018-08-22T16:04:17.507Z,60158.07
2018-08-22T16:06:48.264Z,60158.07
2018-08-22T16:09:20.559Z,60160.11
2018-08-22T16:11:48.739Z,60172.30
2018-08-22T16:14:16.908Z,60161.12
2018-08-22T16:16:45.070Z,60143.85
2018-08-22T16:19:13.299Z,60164.17
2018-08-22T16:21:41.463Z,60166.20
2018-08-22T16:24:09.663Z,60162.14
2018-08-22T16:26:37.833Z,60155.03
2018-08-22T16:29:06.114Z,60150.96
2018-08-22T16:31:44.766Z,60144.87
2018-08-22T16:34:13.438Z,60149.95
2018-08-22T16:36:41.614Z,60156.04
2018-08-22T16:39:10.313Z,60157.06
2018-08-22T16:41:38.691Z,60166.20
2018-08-22T16:44:06.888Z,60178.40
2018-08-22T16:46:35.067Z,60160.11
2018-08-22T16:49:03.270Z,60154.01
2018-08-22T16:51:31.466Z,60178.40
2018-08-22T16:54:04.974Z,60147.91
2018-08-22T16:56:34.102Z,60164.17
2018-08-22T16:59:07.507Z,60168.23
2018-08-22T17:01:36.231Z,60156.04
2018-08-22T17:04:04.510Z,60165.19
2018-08-22T17:06:32.687Z,60165.19
2018-08-22T17:09:00.862Z,60179.41
2018-08-22T17:11:29.048Z,60178.40
2018-08-22T17:13:57.238Z,60164.17
2018-08-22T17:16:25.826Z,60169.25
2018-08-22T17:18:54.074Z,60172.30
2018-08-22T17:21:22.283Z,60182.46
2018-08-22T17:23:50.759Z,60174.33
2018-08-22T17:26:19.964Z,60178.40
2018-08-22T17:28:50.242Z,60169.25
2018-08-22T17:31:19.175Z,60176.37
2018-08-22T17:33:57.596Z,60184.49
2018-08-22T17:36:25.864Z,60192.62
2018-08-22T17:38:55.362Z,60181.45
2018-08-22T17:41:24.995Z,60189.57
2018-08-22T17:43:59.315Z,60189.57
2018-08-22T17:46:29.259Z,60181.45
2018-08-22T17:48:57.686Z,60198.72
2018-08-22T17:51:25.882Z,60182.46
2018-08-22T17:53:54.065Z,60181.45
2018-08-22T17:56:23.537Z,60203.80
2018-08-22T17:58:52.655Z,60179.41
2018-08-22T18:01:21.116Z,60181.45
2018-08-22T18:03:49.303Z,60187.54
2018-08-22T18:06:17.651Z,60200.75
2018-08-22T18:08:45.805Z,60194.66
2018-08-22T18:11:13.971Z,60206.85
2018-08-22T18:13:42.166Z,60208.88
2018-08-22T18:16:10.307Z,60209.90
2018-08-22T18:18:38.483Z,60207.86
2018-08-22T18:21:06.693Z,60208.88
2018-08-22T18:23:37.418Z,60205.83
2018-08-22T18:26:06.019Z,60202.79
2018-08-22T18:28:34.208Z,60208.88
2018-08-22T18:31:02.374Z,60214.98
2018-08-22T18:33:30.558Z,60227.17
2018-08-22T18:35:58.711Z,60221.07
2018-08-22T18:38:26.894Z,60229.20
2018-08-22T18:41:05.869Z,60213.96
2018-08-22T18:43:34.067Z,60213.96
2018-08-22T18:46:05.566Z,60229.20
2018-08-22T18:48:34.705Z,60221.07
2018-08-22T18:51:03.141Z,60226.16
2018-08-22T18:53:31.414Z,60231.24
2018-08-22T18:56:10.947Z,60232.25
2018-08-22T18:58:39.537Z,60215.99
2018-08-22T19:01:07.806Z,60220.06
2018-08-22T19:03:36.398Z,60222.09
2018-08-22T19:06:04.986Z,60206.85
2018-08-22T19:08:36.577Z,60229.20
2018-08-22T19:11:05.092Z,60248.51
2018-08-22T19:13:33.286Z,60219.04
2018-08-22T19:16:09.168Z,60236.32
2018-08-22T19:18:37.642Z,60230.22
2018-08-22T19:21:07.053Z,60221.07
2018-08-22T19:23:35.307Z,60218.03
2018-08-22T19:26:04.410Z,60247.49
2018-08-22T19:28:42.689Z,60242.41
2018-08-22T19:31:10.882Z,60232.25
2018-08-22T19:33:39.063Z,60242.41
2018-08-22T19:36:07.253Z,60260.71
2018-08-22T19:38:35.438Z,60237.33
2018-08-22T19:41:30.803Z,60251.56
2018-08-22T19:43:58.991Z,60240.38
2018-08-22T19:46:27.176Z,60265.79
2018-08-22T19:48:55.408Z,60244.45
2018-08-22T19:51:23.562Z,60243.43
2018-08-22T19:53:59.293Z,60253.59
2018-08-22T19:56:28.237Z,60266.80
2018-08-22T19:58:56.349Z,60260.71
2018-08-22T20:01:24.544Z,60272.90
2018-08-22T20:03:54.547Z,60253.59
2018-08-22T20:06:23.128Z,60265.79
2018-08-22T20:08:53.171Z,60253.59
2018-08-22T20:11:21.379Z,60254.61
2018-08-22T20:13:56.772Z,60259.69
2018-08-22T20:16:25.023Z,60263.75
2018-08-22T20:18:55.363Z,60250.54
2018-08-22T20:21:28.778Z,60270.87
2018-08-22T20:23:57.065Z,60271.88
2018-08-22T20:26:26.032Z,60266.80
2018-08-22T20:28:55.319Z,60277.98
2018-08-22T20:31:23.508Z,60263.75
2018-08-22T20:34:04.690Z,60283.06
2018-08-22T20:36:32.940Z,60259.69
2018-08-22T20:39:06.058Z,60271.88
2018-08-22T20:41:34.618Z,60272.90
2018-08-22T20:44:03.215Z,60290.17
2018-08-22T20:46:31.464Z,60278.99
2018-08-22T20:48:59.641Z,60275.95
2018-08-22T20:51:29.658Z,60287.12
2018-08-22T20:54:02.020Z,60259.69
2018-08-22T20:56:31.191Z,60264.77
2018-08-22T20:58:59.715Z,60281.03
2018-08-22T21:01:27.906Z,60288.14
2018-08-22T21:03:56.111Z,60265.79
2018-08-22T21:06:24.309Z,60275.95
2018-08-22T21:08:52.523Z,60266.80
2018-08-22T21:11:20.746Z,60266.80
2018-08-22T21:13:48.983Z,60293.22
2018-08-22T21:16:17.117Z,60286.11
2018-08-22T21:18:45.295Z,60290.17
2018-08-22T21:21:21.666Z,60287.12
2018-08-22T21:23:49.934Z,60276.96
2018-08-22T21:26:32.585Z,60275.95
2018-08-22T21:29:00.775Z,60294.24
2018-08-22T21:31:29.063Z,60307.45
2018-08-22T21:33:57.328Z,60297.29
2018-08-22T21:36:25.517Z,60284.07
2018-08-22T21:38:53.729Z,60297.29
2018-08-22T21:41:21.923Z,60315.57
2018-08-22T21:43:50.121Z,60287.12
2018-08-22T21:46:18.293Z,60287.12
2018-08-22T21:48:46.475Z,60298.30
2018-08-22T21:51:14.683Z,60290.17
2018-08-22T21:53:42.858Z,60272.90
2018-08-22T21:56:11.047Z,60298.30
2018-08-22T21:58:39.223Z,60273.91
2018-08-22T22:01:07.462Z,60291.19
2018-08-22T22:03:35.642Z,60280.01
2018-08-22T22:06:04.803Z,60293.22
2018-08-22T22:08:33.062Z,60292.21
2018-08-22T22:11:04.307Z,60290.17
2018-08-22T22:13:32.553Z,60286.11
2018-08-22T22:16:02.290Z,60300.34
2018-08-22T22:18:33.358Z,60293.22
2018-08-22T22:21:09.780Z,60292.21
2018-08-22T22:23:42.390Z,60290.17
2018-08-22T22:26:10.578Z,60314.56
2018-08-22T22:28:39.580Z,60294.24
2018-08-22T22:31:09.790Z,60315.57
2018-08-22T22:33:42.269Z,60319.64
2018-08-22T22:36:10.436Z,60310.50
2018-08-22T22:38:38.615Z,60317.61
2018-08-22T22:41:06.834Z,60296.27
2018-08-22T22:43:35.430Z,60308.46
2018-08-22T22:46:03.625Z,60306.43
2018-08-22T22:48:37.128Z,60286.11
2018-08-22T22:51:05.640Z,60300.34
2018-08-22T22:53:34.015Z,60303.38
2018-08-22T22:56:02.240Z,60324.72
2018-08-22T22:58:30.440Z,60314.56
2018-08-22T23:00:58.612Z,60313.54
2018-08-22T23:03:26.786Z,60320.66
2018-08-22T23:05:54.951Z,60309.48
2018-08-22T23:08:23.869Z,60332.85
2018-08-22T23:10:52.042Z,60312.53
2018-08-22T23:13:20.225Z,60307.45
2018-08-22T23:15:48.406Z,60305.41
2018-08-22T23:18:17.847Z,60310.50
2018-08-22T23:20:46.044Z,60305.41
2018-08-22T23:23:29.711Z,60315.57
2018-08-22T23:26:05.484Z,60338.95
2018-08-22T23:28:33.762Z,60309.48
2018-08-22T23:31:01.947Z,60328.79
2018-08-22T23:33:30.134Z,60312.53
2018-08-22T23:35:58.306Z,60301.35
2018-08-22T23:38:29.568Z,60309.48
2018-08-22T23:40:58.544Z,60322.69
2018-08-22T23:43:28.803Z,60344.03
2018-08-22T23:45:57.967Z,60311.51
2018-08-22T23:48:31.403Z,60314.56
2018-08-22T23:51:03.314Z,60312.53
2018-08-22T23:53:37.550Z,60311.51
2018-08-22T23:56:14.146Z,60325.74
2018-08-22T23:58:43.303Z,60317.61
